sensor_id;sensor_type;location;lat;lon;timestamp;pressure;altitude;pressure_sealevel;temperature;humidity
58686;BME280;44465;53.206;-6.106;2023-04-19T00:00:13;102769.97;;;21.82;47.76
58686;BME280;44465;53.206;-6.106;2023-04-19T00:02:39;102802.50;;;22.03;47.44
58686;BME280;44465;53.206;-6.106;2023-04-19T00:05:06;102775.22;;;21.85;47.75
58686;BME280;44465;53.206;-6.106;2023-04-19T00:07:32;102786.78;;;21.89;48.01
58686;BME280;44465;53.206;-6.106;2023-04-19T00:09:57;102792.03;;;21.93;47.91
58686;BME280;44465;53.206;-6.106;2023-04-19T00:12:23;102766.41;;;21.81;47.62
58686;BME280;44465;53.206;-6.106;2023-04-19T00:14:49;102798.13;;;21.98;47.95
58686;BME280;44465;53.206;-6.106;2023-04-19T00:17:14;102791.00;;;21.97;47.83
58686;BME280;44465;53.206;-6.106;2023-04-19T00:19:40;102781.41;;;21.89;47.34
58686;BME280;44465;53.206;-6.106;2023-04-19T00:22:06;102778.75;;;21.87;47.86
58686;BME280;44465;53.206;-6.106;2023-04-19T00:24:31;102767.25;;;21.83;47.61
58686;BME280;44465;53.206;-6.106;2023-04-19T00:26:57;102791.00;;;21.97;47.62
58686;BME280;44465;53.206;-6.106;2023-04-19T00:29:23;102767.16;;;21.87;47.77
58686;BME280;44465;53.206;-6.106;2023-04-19T00:31:49;102787.47;;;21.95;47.88
58686;BME280;44465;53.206;-6.106;2023-04-19T00:34:14;102760.16;;;21.81;47.56
58686;BME280;44465;53.206;-6.106;2023-04-19T00:36:40;102789.41;;;21.90;47.72
58686;BME280;44465;53.206;-6.106;2023-04-19T00:39:05;102794.69;;;21.93;47.89
58686;BME280;44465;53.206;-6.106;2023-04-19T00:41:31;102754.16;;;21.73;47.64
58686;BME280;44465;53.206;-6.106;2023-04-19T00:43:57;102759.31;;;21.79;47.86
58686;BME280;44465;53.206;-6.106;2023-04-19T00:46:23;102783.97;;;21.93;47.50
58686;BME280;44465;53.206;-6.106;2023-04-19T00:48:49;102750.50;;;21.74;47.88
58686;BME280;44465;53.206;-6.106;2023-04-19T00:51:15;102782.28;;;21.89;47.67
58686;BME280;44465;53.206;-6.106;2023-04-19T00:53:42;102753.19;;;21.74;47.84
58686;BME280;44465;53.206;-6.106;2023-04-19T00:56:08;102762.84;;;21.81;47.62
58686;BME280;44465;53.206;-6.106;2023-04-19T00:58:36;102742.56;;;21.71;47.75
58686;BME280;44465;53.206;-6.106;2023-04-19T01:01:02;102786.88;;;21.84;47.83
58686;BME280;44465;53.206;-6.106;2023-04-19T01:03:29;102740.88;;;21.68;47.65
58686;BME280;44465;53.206;-6.106;2023-04-19T01:05:55;102747.09;;;21.68;47.72
58686;BME280;44465;53.206;-6.106;2023-04-19T01:08:21;102743.50;;;21.69;47.86
58686;BME280;44465;53.206;-6.106;2023-04-19T01:10:47;102764.50;;;21.85;47.45
58686;BME280;44465;53.206;-6.106;2023-04-19T01:13:14;102745.31;;;21.67;47.45
58686;BME280;44465;53.206;-6.106;2023-04-19T01:15:39;102731.09;;;21.65;47.65
58686;BME280;44465;53.206;-6.106;2023-04-19T01:18:05;102748.66;;;21.77;47.68
58686;BME280;44465;53.206;-6.106;2023-04-19T01:20:31;102749.66;;;21.73;47.71
58686;BME280;44465;53.206;-6.106;2023-04-19T01:22:56;102772.53;;;21.87;47.40
58686;BME280;44465;53.206;-6.106;2023-04-19T01:25:21;102735.56;;;21.65;47.53
58686;BME280;44465;53.206;-6.106;2023-04-19T01:27:47;102733.75;;;21.67;47.65
58686;BME280;44465;53.206;-6.106;2023-04-19T01:30:13;102772.59;;;21.83;47.57
58686;BME280;44465;53.206;-6.106;2023-04-19T01:32:38;102764.56;;;21.83;47.65
58686;BME280;44465;53.206;-6.106;2023-04-19T01:35:04;102749.59;;;21.75;47.68
58686;BME280;44465;53.206;-6.106;2023-04-19T01:37:30;102750.50;;;21.74;47.63
58686;BME280;44465;53.206;-6.106;2023-04-19T01:39:59;102745.25;;;21.71;47.56
58686;BME280;44465;53.206;-6.106;2023-04-19T01:42:26;102772.81;;;21.76;47.83
58686;BME280;44465;53.206;-6.106;2023-04-19T01:44:52;102743.75;;;21.60;47.76
58686;BME280;44465;53.206;-6.106;2023-04-19T01:47:19;102768.22;;;21.79;47.55
58686;BME280;44465;53.206;-6.106;2023-04-19T01:49:44;102742.84;;;21.60;47.76
58686;BME280;44465;53.206;-6.106;2023-04-19T01:52:10;102757.75;;;21.72;47.44
58686;BME280;44465;53.206;-6.106;2023-04-19T01:54:35;102721.31;;;21.63;47.56
58686;BME280;44465;53.206;-6.106;2023-04-19T01:57:01;102727.34;;;21.71;47.36
58686;BME280;44465;53.206;-6.106;2023-04-19T01:59:27;102723.88;;;21.67;47.50
58686;BME280;44465;53.206;-6.106;2023-04-19T02:01:52;102704.38;;;21.62;47.58
58686;BME280;44465;53.206;-6.106;2023-04-19T02:04:19;102696.44;;;21.56;47.22
58686;BME280;44465;53.206;-6.106;2023-04-19T02:06:46;102732.75;;;21.69;47.78
58686;BME280;44465;53.206;-6.106;2023-04-19T02:09:11;102742.47;;;21.74;47.64
58686;BME280;44465;53.206;-6.106;2023-04-19T02:11:40;102743.31;;;21.76;47.60
58686;BME280;44465;53.206;-6.106;2023-04-19T02:14:06;102725.69;;;21.67;47.63
58686;BME280;44465;53.206;-6.106;2023-04-19T02:16:32;102726.84;;;21.55;47.36
58686;BME280;44465;53.206;-6.106;2023-04-19T02:18:57;102740.03;;;21.64;47.68
58686;BME280;44465;53.206;-6.106;2023-04-19T02:21:23;102723.31;;;21.54;47.22
58686;BME280;44465;53.206;-6.106;2023-04-19T02:23:48;102717.09;;;21.52;47.83
58686;BME280;44465;53.206;-6.106;2023-04-19T02:26:14;102744.28;;;21.73;47.49
58686;BME280;44465;53.206;-6.106;2023-04-19T02:28:41;102722.31;;;21.59;47.66
58686;BME280;44465;53.206;-6.106;2023-04-19T02:31:07;102720.47;;;21.62;47.61
58686;BME280;44465;53.206;-6.106;2023-04-19T02:33:34;102718.69;;;21.61;47.50
58686;BME280;44465;53.206;-6.106;2023-04-19T02:35:59;102715.03;;;21.64;47.14
58686;BME280;44465;53.206;-6.106;2023-04-19T02:38:25;102726.44;;;21.72;47.36
58686;BME280;44465;53.206;-6.106;2023-04-19T02:40:52;102704.44;;;21.59;47.66
58686;BME280;44465;53.206;-6.106;2023-04-19T02:43:17;102689.47;;;21.50;47.78
58686;BME280;44465;53.206;-6.106;2023-04-19T02:45:43;102696.56;;;21.51;47.76
58686;BME280;44465;53.206;-6.106;2023-04-19T02:48:11;102727.41;;;21.69;47.29
58686;BME280;44465;53.206;-6.106;2023-04-19T02:50:37;102684.16;;;21.49;47.55
58686;BME280;44465;53.206;-6.106;2023-04-19T02:53:06;102713.09;;;21.69;47.28
58686;BME280;44465;53.206;-6.106;2023-04-19T02:55:32;102663.56;;;21.49;47.56
58686;BME280;44465;53.206;-6.106;2023-04-19T02:58:05;102663.56;;;21.49;47.46
58686;BME280;44465;53.206;-6.106;2023-04-19T03:00:35;102689.94;;;21.66;47.56
58686;BME280;44465;53.206;-6.106;2023-04-19T03:03:06;102700.66;;;21.66;47.61
58686;BME280;44465;53.206;-6.106;2023-04-19T03:05:32;102680.31;;;21.59;47.69
58686;BME280;44465;53.206;-6.106;2023-04-19T03:07:58;102676.06;;;21.50;47.66
58686;BME280;44465;53.206;-6.106;2023-04-19T03:10:24;102687.31;;;21.65;47.37
58686;BME280;44465;53.206;-6.106;2023-04-19T03:12:50;102674.34;;;21.48;47.17
58686;BME280;44465;53.206;-6.106;2023-04-19T03:15:17;102701.56;;;21.67;47.24
58686;BME280;44465;53.206;-6.106;2023-04-19T03:17:43;102691.22;;;21.51;47.63
58686;BME280;44465;53.206;-6.106;2023-04-19T03:20:09;102731.09;;;21.65;47.70
58686;BME280;44465;53.206;-6.106;2023-04-19T03:22:36;102728.41;;;21.65;47.55
58686;BME280;44465;53.206;-6.106;2023-04-19T03:25:03;102716.81;;;21.63;47.49
58686;BME280;44465;53.206;-6.106;2023-04-19T03:27:29;102720.41;;;21.64;47.57
58686;BME280;44465;53.206;-6.106;2023-04-19T03:29:58;102715.09;;;21.62;47.57
58686;BME280;44465;53.206;-6.106;2023-04-19T03:32:25;102699.94;;;21.61;47.46
58686;BME280;44465;53.206;-6.106;2023-04-19T03:34:51;102702.63;;;21.61;47.43
58686;BME280;44465;53.206;-6.106;2023-04-19T03:37:16;102705.25;;;21.63;47.71
58686;BME280;44465;53.206;-6.106;2023-04-19T03:39:42;102708.78;;;21.63;47.52
58686;BME280;44465;53.206;-6.106;2023-04-19T03:42:12;102707.97;;;21.61;47.57
58686;BME280;44465;53.206;-6.106;2023-04-19T03:44:55;102707.97;;;21.61;47.55
58686;BME280;44465;53.206;-6.106;2023-04-19T03:47:22;102700.84;;;21.60;47.70
58686;BME280;44465;53.206;-6.106;2023-04-19T03:49:49;102697.28;;;21.58;47.64
58686;BME280;44465;53.206;-6.106;2023-04-19T03:52:16;102691.88;;;21.61;47.38
58686;BME280;44465;53.206;-6.106;2023-04-19T03:54:41;102677.59;;;21.61;47.43
58686;BME280;44465;53.206;-6.106;2023-04-19T03:57:15;102664.41;;;21.51;47.56
58686;BME280;44465;53.206;-6.106;2023-04-19T03:59:42;102671.41;;;21.57;47.54
58686;BME280;44465;53.206;-6.106;2023-04-19T04:02:08;102669.63;;;21.58;47.33
58686;BME280;44465;53.206;-6.106;2023-04-19T04:04:33;102666.09;;;21.56;47.56
58686;BME280;44465;53.206;-6.106;2023-04-19T04:06:59;102670.56;;;21.55;47.55
58686;BME280;44465;53.206;-6.106;2023-04-19T04:09:25;102664.34;;;21.54;47.56
58686;BME280;44465;53.206;-6.106;2023-04-19T04:11:51;102686.63;;;21.57;47.29
58686;BME280;44465;53.206;-6.106;2023-04-19T04:14:16;102683.94;;;21.57;47.78
58686;BME280;44465;53.206;-6.106;2023-04-19T04:16:42;102691.06;;;21.58;47.40
58686;BME280;44465;53.206;-6.106;2023-04-19T04:19:07;102692.91;;;21.56;47.55
58686;BME280;44465;53.206;-6.106;2023-04-19T04:21:36;102700.91;;;21.57;47.34
58686;BME280;44465;53.206;-6.106;2023-04-19T04:24:03;102704.53;;;21.54;47.49
58686;BME280;44465;53.206;-6.106;2023-04-19T04:26:38;102704.50;;;21.56;47.64
58686;BME280;44465;53.206;-6.106;2023-04-19T04:29:16;102710.78;;;21.55;47.52
58686;BME280;44465;53.206;-6.106;2023-04-19T04:31:43;102701.03;;;21.52;47.69
58686;BME280;44465;53.206;-6.106;2023-04-19T04:34:09;102699.31;;;21.50;47.35
58686;BME280;44465;53.206;-6.106;2023-04-19T04:36:38;102700.16;;;21.52;47.49
58686;BME280;44465;53.206;-6.106;2023-04-19T04:39:05;102705.53;;;21.52;47.68
58686;BME280;44465;53.206;-6.106;2023-04-19T04:41:30;102700.19;;;21.50;47.68
58686;BME280;44465;53.206;-6.106;2023-04-19T04:43:58;102689.56;;;21.47;47.70
58686;BME280;44465;53.206;-6.106;2023-04-19T04:46:25;102701.94;;;21.51;47.30
58686;BME280;44465;53.206;-6.106;2023-04-19T04:48:51;102697.50;;;21.50;47.49
58686;BME280;44465;53.206;-6.106;2023-04-19T04:51:18;102698.66;;;21.42;47.63
58686;BME280;44465;53.206;-6.106;2023-04-19T04:53:46;102697.63;;;21.46;47.71
58686;BME280;44465;53.206;-6.106;2023-04-19T04:56:11;102694.88;;;21.49;47.79
58686;BME280;44465;53.206;-6.106;2023-04-19T04:58:37;102691.28;;;21.48;47.76
58686;BME280;44465;53.206;-6.106;2023-04-19T05:01:05;102697.56;;;21.49;47.52
58686;BME280;44465;53.206;-6.106;2023-04-19T05:03:37;102698.41;;;21.49;47.66
58686;BME280;44465;53.206;-6.106;2023-04-19T05:06:04;102690.44;;;21.48;47.57
58686;BME280;44465;53.206;-6.106;2023-04-19T05:08:30;102689.50;;;21.49;47.53
58686;BME280;44465;53.206;-6.106;2023-04-19T05:11:07;102689.75;;;21.39;47.85
58686;BME280;44465;53.206;-6.106;2023-04-19T05:13:33;102686.97;;;21.43;47.74
58686;BME280;44465;53.206;-6.106;2023-04-19T05:15:59;102694.94;;;21.46;47.54
58686;BME280;44465;53.206;-6.106;2023-04-19T05:18:24;102694.91;;;21.47;47.83
58686;BME280;44465;53.206;-6.106;2023-04-19T05:20:51;102699.38;;;21.47;47.64
58686;BME280;44465;53.206;-6.106;2023-04-19T05:23:20;102702.97;;;21.46;47.77
58686;BME280;44465;53.206;-6.106;2023-04-19T05:25:47;102688.84;;;21.41;47.77
58686;BME280;44465;53.206;-6.106;2023-04-19T05:28:13;102700.38;;;21.43;47.99
58686;BME280;44465;53.206;-6.106;2023-04-19T05:30:46;102706.59;;;21.45;47.89
58686;BME280;44465;53.206;-6.106;2023-04-19T05:33:12;102703.06;;;21.43;47.67
58686;BME280;44465;53.206;-6.106;2023-04-19T05:35:37;102709.25;;;21.45;47.74
58686;BME280;44465;53.206;-6.106;2023-04-19T05:38:03;102706.63;;;21.43;47.70
58686;BME280;44465;53.206;-6.106;2023-04-19T05:40:28;102713.72;;;21.46;47.53
58686;BME280;44465;53.206;-6.106;2023-04-19T05:42:54;102702.25;;;21.41;47.65
58686;BME280;44465;53.206;-6.106;2023-04-19T05:45:21;102711.94;;;21.45;47.63
58686;BME280;44465;53.206;-6.106;2023-04-19T05:47:46;102711.09;;;21.44;47.59
58686;BME280;44465;53.206;-6.106;2023-04-19T05:50:30;102708.41;;;21.43;47.73
58686;BME280;44465;53.206;-6.106;2023-04-19T05:53:27;102700.44;;;21.41;47.61
58686;BME280;44465;53.206;-6.106;2023-04-19T05:55:53;102705.78;;;21.41;47.53
58686;BME280;44465;53.206;-6.106;2023-04-19T05:58:19;102702.13;;;21.44;47.65
58686;BME280;44465;53.206;-6.106;2023-04-19T06:00:45;102705.72;;;21.44;47.68
58686;BME280;44465;53.206;-6.106;2023-04-19T06:03:14;102697.69;;;21.43;47.70
58686;BME280;44465;53.206;-6.106;2023-04-19T06:05:40;102704.88;;;21.42;47.70
58686;BME280;44465;53.206;-6.106;2023-04-19T06:08:05;102701.31;;;21.42;47.83
58686;BME280;44465;53.206;-6.106;2023-04-19T06:10:31;102710.28;;;21.41;47.59
58686;BME280;44465;53.206;-6.106;2023-04-19T06:12:57;102695.97;;;21.42;47.63
58686;BME280;44465;53.206;-6.106;2023-04-19T06:15:22;102703.09;;;21.41;47.51
58686;BME280;44465;53.206;-6.106;2023-04-19T06:17:50;102696.19;;;21.32;47.88
58686;BME280;44465;53.206;-6.106;2023-04-19T06:20:15;102700.56;;;21.36;47.63
58686;BME280;44465;53.206;-6.106;2023-04-19T06:22:44;102700.31;;;21.46;47.58
58686;BME280;44465;53.206;-6.106;2023-04-19T06:25:10;102687.09;;;21.39;47.61
58686;BME280;44465;53.206;-6.106;2023-04-19T06:27:36;102698.59;;;21.43;47.88
58686;BME280;44465;53.206;-6.106;2023-04-19T06:30:02;102697.69;;;21.43;47.91
58686;BME280;44465;53.206;-6.106;2023-04-19T06:32:27;102702.25;;;21.41;48.18
58686;BME280;44465;53.206;-6.106;2023-04-19T06:34:52;102699.44;;;21.45;48.28
58686;BME280;44465;53.206;-6.106;2023-04-19T06:37:18;102710.09;;;21.47;48.14
58686;BME280;44465;53.206;-6.106;2023-04-19T06:39:43;102699.44;;;21.45;48.13
58686;BME280;44465;53.206;-6.106;2023-04-19T06:42:09;102710.09;;;21.47;48.17
58686;BME280;44465;53.206;-6.106;2023-04-19T06:44:36;102709.31;;;21.43;48.30
58686;BME280;44465;53.206;-6.106;2023-04-19T06:47:02;102704.75;;;21.47;48.29
58686;BME280;44465;53.206;-6.106;2023-04-19T06:49:28;102709.31;;;21.43;48.24
58686;BME280;44465;53.206;-6.106;2023-04-19T06:51:54;102705.75;;;21.43;48.22
58686;BME280;44465;53.206;-6.106;2023-04-19T06:54:20;102673.22;;;21.22;48.23
58686;BME280;44465;53.206;-6.106;2023-04-19T06:56:47;102666.97;;;21.23;48.11
58686;BME280;44465;53.206;-6.106;2023-04-19T06:59:15;102685.56;;;21.29;48.30
58686;BME280;44465;53.206;-6.106;2023-04-19T07:01:42;102669.69;;;21.21;47.95
58686;BME280;44465;53.206;-6.106;2023-04-19T07:04:08;102681.88;;;21.33;48.22
58686;BME280;44465;53.206;-6.106;2023-04-19T07:06:34;102667.69;;;21.30;48.17
58686;BME280;44465;53.206;-6.106;2023-04-19T07:09:00;102653.66;;;21.20;48.23
58686;BME280;44465;53.206;-6.106;2023-04-19T07:11:25;102694.22;;;21.41;48.03
58686;BME280;44465;53.206;-6.106;2023-04-19T07:13:51;102681.06;;;21.30;47.78
58686;BME280;44465;53.206;-6.106;2023-04-19T07:16:16;102670.56;;;21.22;47.89
58686;BME280;44465;53.206;-6.106;2023-04-19T07:18:42;102689.03;;;21.33;47.78
58686;BME280;44465;53.206;-6.106;2023-04-19T07:21:08;102694.28;;;21.37;47.86
58686;BME280;44465;53.206;-6.106;2023-04-19T07:23:34;102654.59;;;21.19;47.91
58686;BME280;44465;53.206;-6.106;2023-04-19T07:26:00;102678.53;;;21.25;48.32
58686;BME280;44465;53.206;-6.106;2023-04-19T07:28:29;102674.19;;;21.21;47.89
58686;BME280;44465;53.206;-6.106;2023-04-19T07:30:55;102677.72;;;21.21;48.02
58686;BME280;44465;53.206;-6.106;2023-04-19T07:33:22;102697.16;;;21.30;47.87
58686;BME280;44465;53.206;-6.106;2023-04-19T07:35:49;102668.06;;;21.16;48.05
58686;BME280;44465;53.206;-6.106;2023-04-19T07:38:14;102710.34;;;21.37;47.99
58686;BME280;44465;53.206;-6.106;2023-04-19T07:40:40;102698.06;;;21.30;47.74
58686;BME280;44465;53.206;-6.106;2023-04-19T07:43:05;102687.47;;;21.24;47.82
58686;BME280;44465;53.206;-6.106;2023-04-19T07:45:32;102701.59;;;21.31;47.70
58686;BME280;44465;53.206;-6.106;2023-04-19T07:47:57;102691.00;;;21.26;47.76
58686;BME280;44465;53.206;-6.106;2023-04-19T07:50:26;102694.34;;;21.34;47.81
58686;BME280;44465;53.206;-6.106;2023-04-19T07:52:51;102682.13;;;21.24;47.81
58686;BME280;44465;53.206;-6.106;2023-04-19T07:55:18;102661.84;;;21.14;48.05
58686;BME280;44465;53.206;-6.106;2023-04-19T07:57:43;102665.44;;;21.14;47.92
58686;BME280;44465;53.206;-6.106;2023-04-19T08:02:45;102691.19;;;21.20;47.90
58686;BME280;44465;53.206;-6.106;2023-04-19T08:05:11;102676.03;;;21.19;47.58
58686;BME280;44465;53.206;-6.106;2023-04-19T08:07:38;102666.34;;;21.12;47.51
58686;BME280;44465;53.206;-6.106;2023-04-19T08:10:07;102682.28;;;21.18;47.78
58686;BME280;44465;53.206;-6.106;2023-04-19T08:12:33;102712.25;;;21.32;47.89
58686;BME280;44465;53.206;-6.106;2023-04-19T08:14:58;102691.19;;;21.20;48.08
58686;BME280;44465;53.206;-6.106;2023-04-19T08:17:24;102679.75;;;21.13;47.98
58686;BME280;44465;53.206;-6.106;2023-04-19T08:19:51;102699.97;;;21.25;47.88
58686;BME280;44465;53.206;-6.106;2023-04-19T08:22:17;102679.75;;;21.12;47.75
58686;BME280;44465;53.206;-6.106;2023-04-19T08:24:43;102677.06;;;21.12;47.76
58686;BME280;44465;53.206;-6.106;2023-04-19T08:27:09;102702.72;;;21.22;47.79
58686;BME280;44465;53.206;-6.106;2023-04-19T08:29:35;102706.09;;;21.30;47.78
58686;BME280;44465;53.206;-6.106;2023-04-19T08:32:01;102715.00;;;21.31;47.82
58686;BME280;44465;53.206;-6.106;2023-04-19T08:34:27;102707.09;;;21.26;47.59
58686;BME280;44465;53.206;-6.106;2023-04-19T08:36:52;102715.91;;;21.30;47.68
58686;BME280;44465;53.206;-6.106;2023-04-19T08:39:18;102697.44;;;21.19;47.97
58686;BME280;44465;53.206;-6.106;2023-04-19T08:41:44;102708.00;;;21.25;48.00
58686;BME280;44465;53.206;-6.106;2023-04-19T08:44:13;102712.38;;;21.29;47.94
58686;BME280;44465;53.206;-6.106;2023-04-19T08:46:40;102717.63;;;21.32;47.67
58686;BME280;44465;53.206;-6.106;2023-04-19T08:49:07;102700.97;;;21.21;47.76
58686;BME280;44465;53.206;-6.106;2023-04-19T08:53:59;102689.47;;;21.16;47.82
58686;BME280;44465;53.206;-6.106;2023-04-19T08:56:25;102710.66;;;21.27;47.71
58686;BME280;44465;53.206;-6.106;2023-04-19T08:58:51;102678.94;;;21.10;47.93
58686;BME280;44465;53.206;-6.106;2023-04-19T09:01:16;102677.19;;;21.07;47.78
58686;BME280;44465;53.206;-6.106;2023-04-19T09:03:44;102689.41;;;21.19;47.78
58686;BME280;44465;53.206;-6.106;2023-04-19T09:06:13;102705.25;;;21.28;47.97
58686;BME280;44465;53.206;-6.106;2023-04-19T09:08:39;102671.72;;;21.12;47.81
58686;BME280;44465;53.206;-6.106;2023-04-19T09:11:05;102681.44;;;21.16;47.87
58686;BME280;44465;53.206;-6.106;2023-04-19T09:13:31;102684.06;;;21.19;48.21
58686;BME280;44465;53.206;-6.106;2023-04-19T09:15:57;102669.09;;;21.10;47.96
58686;BME280;44465;53.206;-6.106;2023-04-19T09:18:24;102698.19;;;21.24;48.14
58686;BME280;44465;53.206;-6.106;2023-04-19T09:20:51;102657.41;;;21.13;47.99
58686;BME280;44465;53.206;-6.106;2023-04-19T09:23:23;102663.59;;;21.15;47.80
58686;BME280;44465;53.206;-6.106;2023-04-19T09:25:56;102707.81;;;21.33;48.12
58686;BME280;44465;53.206;-6.106;2023-04-19T09:28:25;102683.94;;;21.23;47.91
58686;BME280;44465;53.206;-6.106;2023-04-19T09:30:51;102658.38;;;21.10;48.09
58686;BME280;44465;53.206;-6.106;2023-04-19T09:33:33;102681.31;;;21.20;48.03
58686;BME280;44465;53.206;-6.106;2023-04-19T09:35:59;102678.38;;;21.31;48.08
58686;BME280;44465;53.206;-6.106;2023-04-19T09:38:25;102696.28;;;21.29;47.98
58686;BME280;44465;53.206;-6.106;2023-04-19T09:40:51;102671.63;;;21.16;48.17
58686;BME280;44465;53.206;-6.106;2023-04-19T09:43:23;102696.19;;;21.32;48.01
58686;BME280;44465;53.206;-6.106;2023-04-19T09:45:52;102690.69;;;21.38;47.96
58686;BME280;44465;53.206;-6.106;2023-04-19T09:48:18;102666.97;;;21.23;48.07
58686;BME280;44465;53.206;-6.106;2023-04-19T09:51:12;102695.19;;;21.36;48.15
58686;BME280;44465;53.206;-6.106;2023-04-19T09:53:39;102688.06;;;21.37;47.93
58686;BME280;44465;53.206;-6.106;2023-04-19T09:56:08;102691.66;;;21.36;47.57
58686;BME280;44465;53.206;-6.106;2023-04-19T09:58:36;102671.41;;;21.24;47.50
58686;BME280;44465;53.206;-6.106;2023-04-19T10:01:02;102688.88;;;21.39;47.66
58686;BME280;44465;53.206;-6.106;2023-04-19T10:03:29;102697.88;;;21.36;47.52
58686;BME280;44465;53.206;-6.106;2023-04-19T10:05:56;102669.03;;;21.13;47.35
58686;BME280;44465;53.206;-6.106;2023-04-19T10:08:22;102653.81;;;21.14;47.20
58686;BME280;44465;53.206;-6.106;2023-04-19T10:10:48;102688.41;;;21.23;47.49
58686;BME280;44465;53.206;-6.106;2023-04-19T10:13:19;102672.00;;;21.01;46.10
58686;BME280;44465;53.206;-6.106;2023-04-19T10:15:48;102695.09;;;21.06;45.94
58686;BME280;44465;53.206;-6.106;2023-04-19T10:18:13;102675.66;;;20.98;45.78
58686;BME280;44465;53.206;-6.106;2023-04-19T10:20:53;102691.25;;;21.17;46.27
58686;BME280;44465;53.206;-6.106;2023-04-19T10:23:21;102685.03;;;21.15;47.02
58686;BME280;44465;53.206;-6.106;2023-04-19T10:25:47;102679.75;;;21.12;46.70
58686;BME280;44465;53.206;-6.106;2023-04-19T10:28:15;102675.25;;;21.14;47.19
58686;BME280;44465;53.206;-6.106;2023-04-19T10:31:01;102700.84;;;21.26;47.18
58686;BME280;44465;53.206;-6.106;2023-04-19T10:33:29;102677.78;;;21.20;47.21
58686;BME280;44465;53.206;-6.106;2023-04-19T10:35:59;102691.78;;;21.31;47.55
58686;BME280;44465;53.206;-6.106;2023-04-19T10:38:40;102657.59;;;21.06;47.49
58686;BME280;44465;53.206;-6.106;2023-04-19T10:41:08;102670.66;;;21.19;47.83
58686;BME280;44465;53.206;-6.106;2023-04-19T10:43:42;102672.31;;;21.23;47.67
58686;BME280;44465;53.206;-6.106;2023-04-19T10:48:56;102689.97;;;21.32;47.75
58686;BME280;44465;53.206;-6.106;2023-04-19T10:51:37;102690.81;;;21.32;47.81
58686;BME280;44465;53.206;-6.106;2023-04-19T10:57:09;102687.28;;;21.32;47.87
58686;BME280;44465;53.206;-6.106;2023-04-19T10:59:36;102669.69;;;21.21;48.00
58686;BME280;44465;53.206;-6.106;2023-04-19T11:07:16;102668.72;;;21.24;47.80
58686;BME280;44465;53.206;-6.106;2023-04-19T11:09:48;102650.16;;;21.18;47.75
58686;BME280;44465;53.206;-6.106;2023-04-19T11:12:18;102672.38;;;21.21;47.75
58686;BME280;44465;53.206;-6.106;2023-04-19T11:14:50;102672.28;;;21.25;47.98
58686;BME280;44465;53.206;-6.106;2023-04-19T11:17:23;102658.09;;;21.21;47.99
58686;BME280;44465;53.206;-6.106;2023-04-19T11:19:54;102692.44;;;21.39;47.85
58686;BME280;44465;53.206;-6.106;2023-04-19T11:24:56;102651.91;;;21.19;48.18
58686;BME280;44465;53.206;-6.106;2023-04-19T11:27:21;102685.41;;;21.35;47.85
58686;BME280;44465;53.206;-6.106;2023-04-19T11:29:47;102681.06;;;21.30;47.85
58686;BME280;44465;53.206;-6.106;2023-04-19T11:32:12;102650.06;;;21.21;48.04
58686;BME280;44465;53.206;-6.106;2023-04-19T11:34:39;102673.94;;;21.30;47.93
58686;BME280;44465;53.206;-6.106;2023-04-19T11:37:05;102653.66;;;21.20;48.07
58686;BME280;44465;53.206;-6.106;2023-04-19T11:39:30;102676.63;;;21.30;47.84
58686;BME280;44465;53.206;-6.106;2023-04-19T11:41:56;102660.69;;;21.24;48.14
58686;BME280;44465;53.206;-6.106;2023-04-19T11:44:22;102658.84;;;21.26;47.94
58686;BME280;44465;53.206;-6.106;2023-04-19T11:47:02;102679.84;;;21.43;47.89
58686;BME280;44465;53.206;-6.106;2023-04-19T11:49:29;102671.06;;;21.36;47.92
58686;BME280;44465;53.206;-6.106;2023-04-19T11:51:56;102653.41;;;21.29;48.02
58686;BME280;44465;53.206;-6.106;2023-04-19T11:54:23;102649.03;;;21.27;48.10
58686;BME280;44465;53.206;-6.106;2023-04-19T11:56:59;102661.31;;;21.34;47.96
58686;BME280;44465;53.206;-6.106;2023-04-19T11:59:26;102657.84;;;21.30;47.84
58686;BME280;44465;53.206;-6.106;2023-04-19T12:01:52;102681.41;;;21.50;48.05
58686;BME280;44465;53.206;-6.106;2023-04-19T12:04:18;102674.34;;;21.48;47.94
58686;BME280;44465;53.206;-6.106;2023-04-19T12:06:44;102660.19;;;21.43;48.20
58686;BME280;44465;53.206;-6.106;2023-04-19T12:09:10;102666.31;;;21.48;48.10
58686;BME280;44465;53.206;-6.106;2023-04-19T12:11:54;102670.81;;;21.46;48.14
58686;BME280;44465;53.206;-6.106;2023-04-19T12:14:21;102662.69;;;21.49;48.22
58686;BME280;44465;53.206;-6.106;2023-04-19T12:17:22;102664.59;;;21.45;48.35
58686;BME280;44465;53.206;-6.106;2023-04-19T12:19:48;102631.72;;;21.38;48.29
58686;BME280;44465;53.206;-6.106;2023-04-19T12:22:18;102648.25;;;21.54;48.00
58686;BME280;44465;53.206;-6.106;2023-04-19T12:24:52;102641.41;;;21.44;47.99
58686;BME280;44465;53.206;-6.106;2023-04-19T12:27:17;102637.00;;;21.42;48.31
58686;BME280;44465;53.206;-6.106;2023-04-19T12:29:43;102666.94;;;21.58;48.17
58686;BME280;44465;53.206;-6.106;2023-04-19T12:32:09;102642.13;;;21.49;48.03
58686;BME280;44465;53.206;-6.106;2023-04-19T12:34:35;102639.44;;;21.49;47.73
58686;BME280;44465;53.206;-6.106;2023-04-19T12:37:01;102629.69;;;21.47;48.32
58686;BME280;44465;53.206;-6.106;2023-04-19T12:39:29;102625.34;;;21.43;48.11
58686;BME280;44465;53.206;-6.106;2023-04-19T12:41:55;102643.75;;;21.55;48.39
58686;BME280;44465;53.206;-6.106;2023-04-19T12:44:21;102638.41;;;21.55;48.06
58686;BME280;44465;53.206;-6.106;2023-04-19T12:46:46;102621.66;;;21.47;48.22
58686;BME280;44465;53.206;-6.106;2023-04-19T12:49:12;102648.19;;;21.58;47.75
58686;BME280;44465;53.206;-6.106;2023-04-19T12:51:37;102622.66;;;21.43;48.14
58686;BME280;44465;53.206;-6.106;2023-04-19T12:54:03;102641.06;;;21.57;48.17
58686;BME280;44465;53.206;-6.106;2023-04-19T12:56:28;102609.31;;;21.41;48.13
58686;BME280;44465;53.206;-6.106;2023-04-19T12:58:54;102654.31;;;21.63;48.02